Crandall, Texas
Current Conditions -  °F | °C
As of 1:15 AM on Sunday 26 Oct 2014 (Local Time) from KHQZ Reporting Station
Clear Clear  
Wind Chill: 64°   Ceiling: Unl
Heat Index: 64°   Visibility: 10mi
Dew Point: 60°   Wind: 5mph
Humidity: 89%   Direction: 170°S
Pressure: 30.04"   Gusts: NA
Location:  32.63°N, 96.46°W
Report Text: KHQZ 260615Z AUTO 17004KT 10SM CLR 18/16 A3004 RMK AO1 T01770158
Loading
Personal Weather Stations






























Interactive Weather Map New forecast layout! Learn more

10-Day Weather Forecast

Advertisements
Track Severe Weather on mobile